Wokal Field Glasgow International Airport Glasgow US
ICAO: KGGW
IATA: GGW
Category: Medium
Scheduled Services: Yes

Elevation: 2296 ft
TransAlt. 18000 ft.

Airport Communications:
ASOS:135.175
SALT LAKE CITY CNTR:126.85
GREAT FALLS RDO:122.25
CTAF/UNICOM:122.8

KGGW Zoom In..

If Map Doesn't Load, Click Here

Runways:

(A) RW 08 length 5000 ft width 75 ft
---- / hdg 79

(B) RW 12 length 5002 ft width 100 ft
---- / hdg 123

(C) RW 26 length 5000 ft width 75 ft
---- / hdg 259

(D) RW 30 length 5002 ft width 100 ft
---- / hdg 303

Location; KGGW
Day. 21 / Time. 13.32 Zulu
* Altimeter: 30.21
* Temperature: 03° c. 37.4°f.
* Wind from: 110° Speed 07 kn.
Dewpoint: 02° c.
Visibility: 10 Statute Miles.
Clouds: Overcast 1500 ft.

KGGW 211332Z AUTO 11007KT 10SM OVC015 03/02 A3021 RMK AO2 T00330022


Wind From 110°
Speed 07 kn.

 
 
jpsmedia.com for Web Design worldairports.se 2018   terms of use